createdAt,value
2023-01-29T00:01:38.693Z,6.20
2023-01-29T00:04:05.988Z,6.40
2023-01-29T00:06:33.260Z,6.10
2023-01-29T00:09:00.640Z,5.82
2023-01-29T00:11:27.641Z,6.63
2023-01-29T00:13:54.849Z,5.83
2023-01-29T00:16:21.635Z,5.85
2023-01-29T00:18:48.774Z,6.10
2023-01-29T00:21:18.918Z,5.88
2023-01-29T00:23:46.410Z,5.57
2023-01-29T00:26:14.215Z,6.27
2023-01-29T00:28:44.701Z,5.63
2023-01-29T00:31:19.101Z,5.97
2023-01-29T00:33:46.356Z,5.85
2023-01-29T00:36:14.909Z,6.25
2023-01-29T00:38:42.171Z,6.57
2023-01-29T00:41:30.173Z,6.40
2023-01-29T00:44:16.148Z,6.60
2023-01-29T00:46:43.559Z,6.30
2023-01-29T00:49:11.381Z,6.75
2023-01-29T00:51:39.398Z,6.93
2023-01-29T00:54:07.048Z,6.85
2023-01-29T00:56:36.333Z,7.88
2023-01-29T00:59:04.715Z,6.68
2023-01-29T01:01:50.212Z,6.22
2023-01-29T01:04:17.437Z,6.40
2023-01-29T01:06:44.242Z,6.35
2023-01-29T01:09:30.154Z,6.20
2023-01-29T01:11:56.958Z,6.32
2023-01-29T01:14:24.083Z,6.05
2023-01-29T01:16:51.067Z,5.50
2023-01-29T01:19:18.213Z,5.85
2023-01-29T01:21:48.254Z,5.53
2023-01-29T01:24:15.530Z,5.47
2023-01-29T01:26:42.751Z,5.47
2023-01-29T01:29:10.562Z,5.47
2023-01-29T01:31:37.618Z,5.13
2023-01-29T01:34:04.760Z,4.95
2023-01-29T01:36:32.432Z,4.90
2023-01-29T01:38:59.658Z,5.18
2023-01-29T01:41:26.474Z,4.80
2023-01-29T01:43:58.787Z,4.60
2023-01-29T01:46:29.910Z,4.40
2023-01-29T01:49:18.323Z,4.13
2023-01-29T01:51:48.735Z,3.80
2023-01-29T01:54:20.988Z,3.60
2023-01-29T01:56:55.501Z,4.90
2023-01-29T01:59:24.039Z,4.53
2023-01-29T02:01:53.757Z,3.83
2023-01-29T02:04:42.529Z,4.15
2023-01-29T02:07:32.763Z,4.50
2023-01-29T02:10:07.575Z,4.78
2023-01-29T02:12:34.462Z,3.85
2023-01-29T02:15:02.435Z,3.72
2023-01-29T02:17:29.416Z,3.40
2023-01-29T02:20:24.531Z,3.50
2023-01-29T02:22:55.377Z,3.38
2023-01-29T02:25:52.809Z,4.28
2023-01-29T02:28:41.366Z,3.58
2023-01-29T02:31:31.667Z,4.57
2023-01-29T02:34:18.977Z,4.03
2023-01-29T02:36:58.608Z,3.40
2023-01-29T02:39:37.974Z,3.88
2023-01-29T02:42:35.939Z,3.75
2023-01-29T02:45:13.818Z,3.33
2023-01-29T02:47:59.366Z,3.23
2023-01-29T02:50:52.165Z,3.63
2023-01-29T02:53:25.761Z,3.17
2023-01-29T02:56:11.999Z,3.30
2023-01-29T02:58:45.665Z,3.50
2023-01-29T03:01:18.406Z,4.40
2023-01-29T03:03:52.723Z,3.80
2023-01-29T03:06:32.628Z,4.00
2023-01-29T03:09:04.372Z,4.55
2023-01-29T03:11:39.809Z,5.20
2023-01-29T03:14:17.089Z,4.70
2023-01-29T03:16:51.642Z,4.30
2023-01-29T03:19:22.968Z,5.43
2023-01-29T03:22:00.026Z,4.28
2023-01-29T03:24:58.183Z,4.38
2023-01-29T03:28:08.557Z,3.97
2023-01-29T03:31:05.727Z,4.38
2023-01-29T03:34:08.452Z,3.90
2023-01-29T03:36:56.099Z,3.53
2023-01-29T03:39:30.277Z,4.55
2023-01-29T03:42:19.380Z,4.40
2023-01-29T03:45:13.939Z,4.40
2023-01-29T03:47:46.382Z,3.95
2023-01-29T03:50:46.142Z,4.15
2023-01-29T03:53:41.312Z,4.78
2023-01-29T03:56:23.896Z,4.23
2023-01-29T03:59:15.899Z,4.70
2023-01-29T04:02:12.189Z,5.80
2023-01-29T04:04:45.295Z,5.80
2023-01-29T04:07:16.378Z,5.53
2023-01-29T04:09:54.568Z,5.73
2023-01-29T04:12:29.633Z,5.95
2023-01-29T04:15:01.685Z,6.05
2023-01-29T04:17:34.817Z,6.00
2023-01-29T04:20:25.068Z,5.57
2023-01-29T04:22:52.805Z,5.63
2023-01-29T04:25:29.184Z,5.10
2023-01-29T04:28:16.520Z,5.70
2023-01-29T04:31:08.397Z,6.20
2023-01-29T04:33:40.594Z,6.10
2023-01-29T04:36:24.749Z,5.73
2023-01-29T04:39:16.022Z,6.10
2023-01-29T04:41:52.692Z,5.65
2023-01-29T04:44:37.095Z,6.35
2023-01-29T04:47:33.567Z,6.78
2023-01-29T04:50:21.363Z,6.73
2023-01-29T04:53:12.163Z,6.85
2023-01-29T04:55:45.666Z,6.97
2023-01-29T04:58:15.799Z,6.50
2023-01-29T05:00:45.413Z,6.03
2023-01-29T05:03:15.433Z,6.23
2023-01-29T05:05:46.126Z,5.97
2023-01-29T05:08:17.903Z,5.43
2023-01-29T05:10:46.967Z,5.20
2023-01-29T05:13:15.491Z,6.30
2023-01-29T05:15:49.254Z,4.60
2023-01-29T05:18:16.699Z,5.20
2023-01-29T05:20:44.295Z,5.95
2023-01-29T05:23:19.944Z,5.78
2023-01-29T05:25:48.065Z,4.32
2023-01-29T05:28:18.112Z,5.13
2023-01-29T05:30:47.427Z,5.25
2023-01-29T05:33:25.191Z,5.38
2023-01-29T05:35:52.411Z,5.90
2023-01-29T05:38:20.297Z,5.30
2023-01-29T05:40:47.358Z,5.60
2023-01-29T05:43:20.372Z,6.10
2023-01-29T05:45:58.263Z,5.70
2023-01-29T05:48:27.718Z,5.78
2023-01-29T05:50:55.232Z,5.97
2023-01-29T05:53:22.335Z,5.30
2023-01-29T05:55:49.580Z,5.50
2023-01-29T05:58:16.702Z,5.40
2023-01-29T06:00:43.525Z,5.90
2023-01-29T06:03:11.260Z,6.35
2023-01-29T06:05:39.335Z,5.80
2023-01-29T06:08:07.527Z,6.38
2023-01-29T06:10:34.577Z,5.53
2023-01-29T06:13:01.773Z,5.65
2023-01-29T06:15:28.653Z,5.28
2023-01-29T06:17:56.969Z,5.40
2023-01-29T06:20:24.460Z,5.13
2023-01-29T06:22:51.565Z,5.55
2023-01-29T06:25:18.492Z,5.80
2023-01-29T06:27:45.662Z,6.13
2023-01-29T06:30:12.829Z,5.43
2023-01-29T06:32:40.168Z,5.15
2023-01-29T06:35:07.824Z,5.78
2023-01-29T06:37:34.970Z,5.65
2023-01-29T06:40:01.836Z,5.40
2023-01-29T06:42:28.968Z,5.30
2023-01-29T06:44:56.570Z,6.40
2023-01-29T06:47:24.800Z,5.53
2023-01-29T06:49:52.313Z,6.45
2023-01-29T06:52:19.551Z,5.80
2023-01-29T06:54:46.409Z,6.03
2023-01-29T06:57:13.600Z,6.40
2023-01-29T06:59:40.436Z,5.18
2023-01-29T07:02:07.639Z,5.07
2023-01-29T07:04:35.655Z,5.40
2023-01-29T07:07:02.881Z,5.23
2023-01-29T07:09:29.761Z,5.30
2023-01-29T07:11:56.949Z,5.43
2023-01-29T07:14:23.777Z,5.70
2023-01-29T07:16:51.153Z,5.25
2023-01-29T07:19:17.991Z,5.73
2023-01-29T07:21:45.108Z,6.38
2023-01-29T07:24:12.004Z,5.20
2023-01-29T07:26:39.160Z,5.63
2023-01-29T07:29:06.069Z,6.75
2023-01-29T07:31:33.619Z,6.20
2023-01-29T07:34:00.536Z,6.20
2023-01-29T07:36:28.595Z,5.22
2023-01-29T07:38:55.760Z,5.75
2023-01-29T07:41:22.994Z,5.82
2023-01-29T07:43:49.893Z,6.30
2023-01-29T07:46:17.091Z,6.65
2023-01-29T07:48:43.942Z,6.50
2023-01-29T07:51:11.345Z,5.38
2023-01-29T07:53:38.359Z,5.35
2023-01-29T07:56:05.819Z,5.30
2023-01-29T07:58:34.437Z,5.28
2023-01-29T08:01:07.573Z,6.68
2023-01-29T08:03:34.743Z,5.60
2023-01-29T08:06:03.904Z,5.40
2023-01-29T08:08:31.055Z,5.33
2023-01-29T08:11:01.164Z,5.50
2023-01-29T08:13:28.151Z,4.95
2023-01-29T08:16:00.289Z,6.20
2023-01-29T08:18:27.189Z,6.38
2023-01-29T08:20:59.284Z,5.20
2023-01-29T08:23:26.129Z,5.00
2023-01-29T08:25:53.304Z,5.55
2023-01-29T08:28:20.136Z,5.28
2023-01-29T08:30:47.320Z,5.38
2023-01-29T08:33:14.167Z,5.37
2023-01-29T08:35:41.460Z,5.00
2023-01-29T08:38:09.591Z,5.68
2023-01-29T08:40:36.760Z,5.47
2023-01-29T08:43:07.971Z,5.32
2023-01-29T08:45:39.891Z,5.43
2023-01-29T08:48:07.755Z,5.10
2023-01-29T08:50:35.451Z,5.97
2023-01-29T08:53:04.894Z,5.18
2023-01-29T08:55:32.024Z,6.00
2023-01-29T08:57:58.834Z,5.20
2023-01-29T09:00:26.148Z,5.18
2023-01-29T09:02:52.966Z,4.75
2023-01-29T09:05:20.598Z,4.85
2023-01-29T09:07:47.498Z,6.20
2023-01-29T09:10:16.028Z,6.40
2023-01-29T09:12:42.843Z,5.72
2023-01-29T09:15:10.473Z,6.28
2023-01-29T09:17:37.365Z,5.35
2023-01-29T09:20:07.627Z,4.88
2023-01-29T09:22:34.705Z,5.27
2023-01-29T09:25:02.648Z,5.85
2023-01-29T09:27:29.439Z,5.70
2023-01-29T09:29:56.863Z,5.70
2023-01-29T09:32:52.061Z,6.57
2023-01-29T09:35:10.902Z,6.17
2023-01-29T09:37:37.716Z,6.65
2023-01-29T09:40:05.603Z,6.28
2023-01-29T09:42:42.430Z,6.07
2023-01-29T09:45:16.907Z,5.90
2023-01-29T09:47:44.888Z,5.23
2023-01-29T09:50:26.538Z,4.90
2023-01-29T09:53:05.165Z,4.22
2023-01-29T09:55:39.445Z,5.13
2023-01-29T09:58:19.638Z,4.60
2023-01-29T10:01:03.052Z,4.00
2023-01-29T10:03:43.982Z,6.00
2023-01-29T10:06:18.881Z,6.47
2023-01-29T10:09:12.039Z,6.35
2023-01-29T10:12:07.322Z,6.30
2023-01-29T10:14:55.541Z,6.30
2023-01-29T10:17:35.365Z,5.88
2023-01-29T10:20:30.130Z,6.35
2023-01-29T10:22:57.340Z,6.40
2023-01-29T10:25:24.361Z,5.45
2023-01-29T10:27:54.330Z,5.70
2023-01-29T10:30:32.991Z,5.05
2023-01-29T10:33:04.282Z,5.47
2023-01-29T10:35:43.924Z,5.15
2023-01-29T10:38:21.656Z,7.93
2023-01-29T10:40:59.385Z,8.60
2023-01-29T10:43:38.800Z,5.97
2023-01-29T10:46:15.276Z,6.50
2023-01-29T10:48:54.761Z,6.80
2023-01-29T10:51:41.225Z,5.55
2023-01-29T10:54:17.658Z,5.27
2023-01-29T10:57:21.190Z,6.85
2023-01-29T11:00:17.398Z,6.65
2023-01-29T11:02:46.506Z,7.32
2023-01-29T11:05:26.347Z,7.35
2023-01-29T11:08:07.521Z,7.83
2023-01-29T11:10:45.149Z,7.43
2023-01-29T11:13:15.285Z,7.25
2023-01-29T11:15:42.429Z,5.88
2023-01-29T11:18:16.026Z,6.57
2023-01-29T11:20:45.109Z,5.97
2023-01-29T11:23:32.232Z,7.35
2023-01-29T11:26:00.825Z,6.00
2023-01-29T11:28:45.971Z,5.57
2023-01-29T11:31:29.928Z,7.00
2023-01-29T11:34:16.712Z,5.30
2023-01-29T11:36:45.053Z,4.88
2023-01-29T11:39:20.905Z,5.20
2023-01-29T11:41:49.427Z,5.43
2023-01-29T11:44:30.549Z,6.13
2023-01-29T11:47:11.051Z,5.97
2023-01-29T11:49:39.891Z,5.32
2023-01-29T11:52:10.336Z,5.68
2023-01-29T11:54:59.852Z,5.72
2023-01-29T11:57:34.279Z,6.82
2023-01-29T12:00:06.917Z,6.33
2023-01-29T12:02:42.333Z,6.82
2023-01-29T12:05:18.767Z,5.60
2023-01-29T12:07:52.064Z,6.90
2023-01-29T12:10:34.185Z,6.20
2023-01-29T12:13:15.825Z,6.70
2023-01-29T12:15:43.197Z,6.97
2023-01-29T12:18:35.501Z,6.93
2023-01-29T12:21:12.415Z,6.97
2023-01-29T12:23:50.239Z,6.38
2023-01-29T12:26:33.421Z,6.80
2023-01-29T12:29:13.377Z,6.00
2023-01-29T12:32:11.143Z,6.82
2023-01-29T12:35:03.718Z,5.57
2023-01-29T12:37:39.530Z,5.40
2023-01-29T12:40:16.069Z,5.60
2023-01-29T12:42:50.423Z,5.15
2023-01-29T12:45:20.504Z,5.57
2023-01-29T12:47:50.711Z,6.60
2023-01-29T12:50:33.762Z,6.93
2023-01-29T12:53:20.925Z,5.93
2023-01-29T12:55:55.500Z,8.18
2023-01-29T12:58:29.636Z,9.40
2023-01-29T13:01:03.251Z,20.63
2023-01-29T13:03:41.597Z,15.00
2023-01-29T13:06:15.809Z,7.57
2023-01-29T13:08:54.034Z,7.40
2023-01-29T13:11:27.707Z,7.00
2023-01-29T13:13:59.492Z,6.35
2023-01-29T13:16:36.387Z,7.25
2023-01-29T13:19:07.557Z,6.60
2023-01-29T13:21:41.679Z,7.50
2023-01-29T13:24:17.575Z,7.43
2023-01-29T13:26:46.240Z,6.50
2023-01-29T13:29:30.985Z,7.20
2023-01-29T13:32:04.631Z,8.20
2023-01-29T13:34:34.591Z,7.15
2023-01-29T13:37:16.030Z,6.93
2023-01-29T13:39:49.653Z,8.05
2023-01-29T13:42:23.413Z,9.05
2023-01-29T13:44:55.350Z,11.53
2023-01-29T13:47:28.129Z,10.10
2023-01-29T13:50:00.207Z,9.07
2023-01-29T13:52:33.507Z,8.48
2023-01-29T13:55:15.806Z,7.30
2023-01-29T13:57:49.121Z,7.10
2023-01-29T14:00:35.912Z,8.15
2023-01-29T14:03:11.886Z,7.15
2023-01-29T14:05:42.664Z,5.80
2023-01-29T14:08:09.763Z,6.50
2023-01-29T14:10:38.013Z,6.90
2023-01-29T14:13:05.069Z,6.72
2023-01-29T14:15:34.714Z,6.82
2023-01-29T14:18:06.539Z,8.48
2023-01-29T14:20:46.279Z,7.95
2023-01-29T14:23:26.967Z,8.27
2023-01-29T14:25:54.105Z,9.13
2023-01-29T14:28:28.708Z,12.68
2023-01-29T14:30:56.207Z,13.88
2023-01-29T14:33:25.406Z,25.35
2023-01-29T14:35:53.415Z,67.73
2023-01-29T14:38:23.967Z,29.73
2023-01-29T14:40:51.388Z,11.13
2023-01-29T14:43:22.093Z,14.50
2023-01-29T14:45:49.748Z,9.38
2023-01-29T14:48:35.153Z,9.90
2023-01-29T14:51:12.906Z,9.07
2023-01-29T14:53:50.005Z,8.88
2023-01-29T14:56:27.989Z,7.00
2023-01-29T14:59:16.356Z,6.68
2023-01-29T15:01:57.910Z,6.77
2023-01-29T15:04:33.684Z,6.35
2023-01-29T15:07:09.701Z,6.13
2023-01-29T15:09:47.193Z,6.60
2023-01-29T15:12:21.601Z,6.38
2023-01-29T15:15:03.367Z,7.63
2023-01-29T15:17:36.856Z,6.55
2023-01-29T15:20:32.840Z,5.88
2023-01-29T15:23:03.221Z,5.80
2023-01-29T15:25:47.260Z,5.75
2023-01-29T15:28:15.305Z,6.47
2023-01-29T15:30:45.164Z,7.50
2023-01-29T15:33:15.008Z,7.68
2023-01-29T15:35:42.594Z,6.28
2023-01-29T15:38:24.243Z,6.80
2023-01-29T15:41:00.044Z,7.07
2023-01-29T15:43:31.059Z,6.90
2023-01-29T15:46:02.403Z,6.80
2023-01-29T15:48:37.432Z,7.43
2023-01-29T15:51:17.531Z,7.30
2023-01-29T15:53:56.439Z,8.07
2023-01-29T15:56:29.585Z,7.55
2023-01-29T15:59:00.402Z,8.00
2023-01-29T16:01:29.830Z,6.85
2023-01-29T16:04:02.491Z,7.00
2023-01-29T16:06:41.344Z,8.13
2023-01-29T16:09:08.838Z,8.52
2023-01-29T16:11:36.353Z,8.68
2023-01-29T16:14:03.841Z,8.98
2023-01-29T16:16:31.243Z,7.88
2023-01-29T16:19:00.950Z,7.03
2023-01-29T16:21:33.691Z,7.32
2023-01-29T16:24:09.493Z,8.68
2023-01-29T16:26:39.681Z,9.70
2023-01-29T16:29:09.725Z,9.45
2023-01-29T16:31:38.335Z,9.87
2023-01-29T16:34:14.245Z,10.38
2023-01-29T16:36:48.384Z,7.00
2023-01-29T16:39:30.184Z,9.15
2023-01-29T16:42:13.117Z,10.73
2023-01-29T16:44:41.067Z,9.27
2023-01-29T16:47:30.659Z,7.53
2023-01-29T16:50:36.083Z,8.00
2023-01-29T16:53:23.286Z,26.55
2023-01-29T16:55:52.425Z,8.90
2023-01-29T16:58:22.165Z,10.23
2023-01-29T17:00:52.776Z,16.17
2023-01-29T17:03:20.480Z,11.00
2023-01-29T17:05:47.955Z,10.25
2023-01-29T17:08:23.502Z,14.77
2023-01-29T17:10:50.862Z,11.70
2023-01-29T17:13:42.846Z,9.85
2023-01-29T17:16:23.758Z,9.82
2023-01-29T17:18:51.310Z,8.45
2023-01-29T17:21:18.520Z,8.68
2023-01-29T17:23:45.948Z,8.90
2023-01-29T17:26:14.333Z,7.32
2023-01-29T17:28:42.024Z,9.05
2023-01-29T17:31:09.435Z,10.20
2023-01-29T17:33:41.167Z,8.23
2023-01-29T17:36:12.386Z,7.57
2023-01-29T17:38:40.506Z,7.53
2023-01-29T17:41:14.304Z,7.70
2023-01-29T17:43:41.477Z,7.65
2023-01-29T17:46:13.668Z,8.23
2023-01-29T17:48:40.827Z,7.40
2023-01-29T17:51:12.613Z,8.27
2023-01-29T17:53:46.063Z,8.30
2023-01-29T17:56:17.106Z,7.80
2023-01-29T17:58:44.499Z,7.10
2023-01-29T18:01:12.175Z,7.57
2023-01-29T18:03:39.448Z,7.43
2023-01-29T18:06:09.992Z,7.18
2023-01-29T18:08:39.630Z,8.50
2023-01-29T18:11:07.515Z,7.57
2023-01-29T18:13:36.268Z,7.38
2023-01-29T18:16:03.451Z,7.10
2023-01-29T18:18:30.798Z,8.60
2023-01-29T18:20:57.725Z,7.88
2023-01-29T18:23:24.911Z,8.18
2023-01-29T18:25:52.941Z,7.68
2023-01-29T18:28:20.210Z,7.97
2023-01-29T18:30:47.672Z,9.05
2023-01-29T18:33:16.971Z,7.57
2023-01-29T18:35:45.001Z,6.95
2023-01-29T18:38:12.242Z,8.20
2023-01-29T18:40:39.206Z,7.47
2023-01-29T18:43:06.450Z,7.88
2023-01-29T18:45:33.293Z,7.65
2023-01-29T18:48:00.523Z,6.90
2023-01-29T18:50:27.511Z,8.30
2023-01-29T18:52:55.197Z,8.50
2023-01-29T18:55:23.500Z,8.40
2023-01-29T18:58:24.668Z,8.93
2023-01-29T19:00:42.059Z,11.80
2023-01-29T19:03:10.665Z,10.20
2023-01-29T19:05:37.567Z,10.97
2023-01-29T19:08:05.938Z,10.82
2023-01-29T19:10:34.095Z,11.20
2023-01-29T19:13:01.729Z,10.43
2023-01-29T19:15:28.568Z,9.45
2023-01-29T19:17:56.196Z,9.27
2023-01-29T19:20:23.264Z,10.38
2023-01-29T19:22:50.489Z,11.00
2023-01-29T19:25:18.087Z,9.40
2023-01-29T19:27:45.932Z,11.38
2023-01-29T19:30:13.153Z,9.70
2023-01-29T19:32:41.242Z,10.07
2023-01-29T19:35:09.598Z,8.63
2023-01-29T19:37:36.760Z,9.98
2023-01-29T19:40:04.793Z,10.32
2023-01-29T19:42:32.020Z,7.43
2023-01-29T19:44:59.556Z,8.70
2023-01-29T19:47:26.805Z,8.82
2023-01-29T19:49:53.643Z,11.80
2023-01-29T19:52:50.295Z,9.07
2023-01-29T19:55:18.935Z,18.27
2023-01-29T19:57:46.622Z,16.67
2023-01-29T20:00:15.561Z,18.10
2023-01-29T20:02:42.789Z,23.83
2023-01-29T20:05:12.167Z,19.95
2023-01-29T20:07:41.231Z,38.97
2023-01-29T20:10:11.478Z,19.98
2023-01-29T20:12:38.705Z,14.27
2023-01-29T20:15:07.445Z,15.85
2023-01-29T20:17:34.627Z,38.90
2023-01-29T20:20:01.506Z,25.47
2023-01-29T20:22:30.051Z,16.75
2023-01-29T20:24:57.189Z,15.05
2023-01-29T20:27:24.937Z,13.40
2023-01-29T20:29:52.793Z,10.00
2023-01-29T20:32:19.984Z,9.53
2023-01-29T20:34:51.939Z,7.03
2023-01-29T20:37:19.785Z,7.20
2023-01-29T20:39:46.936Z,6.10
2023-01-29T20:42:14.943Z,6.03
2023-01-29T20:44:42.238Z,8.80
2023-01-29T20:47:09.464Z,6.65
2023-01-29T20:49:36.302Z,6.93
2023-01-29T20:52:03.498Z,7.85
2023-01-29T20:54:33.272Z,6.85
2023-01-29T20:57:00.676Z,7.53
2023-01-29T20:59:29.285Z,6.57
2023-01-29T21:01:56.630Z,6.40
2023-01-29T21:04:23.810Z,8.27
2023-01-29T21:06:50.988Z,7.32
2023-01-29T21:09:17.796Z,6.57
2023-01-29T21:11:45.198Z,7.45
2023-01-29T21:14:12.137Z,7.30
2023-01-29T21:16:40.517Z,7.93
2023-01-29T21:19:07.378Z,6.82
2023-01-29T21:21:34.808Z,7.67
2023-01-29T21:24:01.716Z,6.68
2023-01-29T21:26:28.945Z,9.93
2023-01-29T21:28:55.875Z,8.57
2023-01-29T21:31:23.097Z,11.75
2023-01-29T21:33:50.172Z,9.30
2023-01-29T21:36:17.676Z,8.38
2023-01-29T21:38:44.519Z,7.90
2023-01-29T21:41:11.801Z,7.40
2023-01-29T21:43:39.212Z,6.35
2023-01-29T21:46:13.650Z,8.73
2023-01-29T21:48:41.102Z,9.07
2023-01-29T21:51:08.608Z,12.20
2023-01-29T21:53:36.798Z,9.43
2023-01-29T21:56:05.338Z,9.35
2023-01-29T21:58:32.371Z,8.80
2023-01-29T22:01:23.042Z,8.35
2023-01-29T22:03:47.538Z,10.32
2023-01-29T22:06:15.518Z,10.23
2023-01-29T22:08:42.746Z,9.68
2023-01-29T22:11:10.192Z,8.90
2023-01-29T22:13:37.220Z,9.30
2023-01-29T22:16:06.098Z,7.43
2023-01-29T22:18:33.115Z,8.60
2023-01-29T22:21:02.964Z,8.40
2023-01-29T22:23:31.409Z,6.80
2023-01-29T22:26:05.550Z,7.45
2023-01-29T22:28:32.456Z,6.65
2023-01-29T22:31:03.864Z,5.75
2023-01-29T22:33:31.123Z,7.55
2023-01-29T22:35:58.342Z,6.37
2023-01-29T22:38:25.277Z,7.18
2023-01-29T22:40:53.965Z,7.90
2023-01-29T22:43:21.772Z,6.93
2023-01-29T22:45:48.994Z,8.13
2023-01-29T22:48:15.863Z,10.47
2023-01-29T22:50:43.075Z,8.35
2023-01-29T22:53:09.937Z,7.93
2023-01-29T22:55:37.095Z,8.45
2023-01-29T22:58:04.037Z,7.75
2023-01-29T23:00:31.222Z,8.07
2023-01-29T23:02:58.071Z,9.38
2023-01-29T23:05:25.360Z,9.07
2023-01-29T23:07:52.199Z,9.10
2023-01-29T23:10:19.634Z,10.48
2023-01-29T23:12:46.599Z,9.70
2023-01-29T23:15:13.792Z,9.25
2023-01-29T23:17:40.665Z,8.25
2023-01-29T23:20:08.718Z,7.95
2023-01-29T23:22:35.635Z,7.68
2023-01-29T23:25:02.882Z,6.50
2023-01-29T23:27:29.758Z,6.85
2023-01-29T23:29:56.950Z,7.25
2023-01-29T23:32:23.794Z,9.05
2023-01-29T23:34:50.984Z,8.30
2023-01-29T23:37:17.818Z,8.90
2023-01-29T23:39:45.117Z,10.27
2023-01-29T23:42:12.195Z,7.40
2023-01-29T23:44:40.400Z,8.30
2023-01-29T23:47:08.499Z,8.38
2023-01-29T23:49:36.115Z,7.40
2023-01-29T23:52:03.305Z,7.15
2023-01-29T23:54:30.471Z,8.30
2023-01-29T23:56:57.317Z,6.97
2023-01-29T23:59:27.859Z,8.32
